Time;durP1;ratioP1;P1;durP2;ratioP2;P2;SDS_P1;SDS_P2;PMS_P1;PMS_P2;Temp;Humidity;BMP_temperature;BMP_pressure;BME280_temperature;BME280_humidity;BME280_pressure;Samples;Min_cycle;Max_cycle;Signal;HPM_P1;HPM_P2
2021/09/21 00:02:00;;;;;;;8.90;4.63;;;;;;;7.73;78.05;102695.31;6216370;28;20265;-71
2021/09/21 00:05:07;;;;;;;17.75;5.13;;;;;;;7.46;78.78;102694.34;6216632;28;20214;-70
2021/09/21 00:08:16;;;;;;;19.60;5.60;;;;;;;7.46;79.48;102694.34;6216886;28;20194;-71
2021/09/21 00:11:21;;;;;;;27.52;6.00;;;;;;;7.59;79.13;102693.97;6215853;28;20186;-71
2021/09/21 00:14:25;;;;;;;24.05;5.65;;;;;;;7.56;79.37;102684.28;6216467;28;20190;-71
2021/09/21 00:17:29;;;;;;;15.32;5.80;;;;;;;7.61;79.00;102681.09;6216600;28;20186;-70
2021/09/21 00:20:34;;;;;;;24.38;5.25;;;;;;;7.71;77.92;102689.16;6216703;28;20294;-71
2021/09/21 00:23:39;;;;;;;15.20;4.88;;;;;;;7.62;77.89;102676.53;6216206;28;20210;-71
2021/09/21 00:26:43;;;;;;;20.57;5.80;;;;;;;7.70;77.25;102677.47;6216138;28;20218;-71
2021/09/21 00:29:47;;;;;;;14.05;4.97;;;;;;;7.63;77.76;102684.50;6198029;28;20209;-71
2021/09/21 00:33:01;;;;;;;10.30;4.82;;;;;;;7.56;77.21;102672.53;6216375;28;20222;-71
2021/09/21 00:36:05;;;;;;;17.70;5.13;;;;;;;7.52;77.27;102680.13;6215016;28;20213;-71
2021/09/21 00:39:12;;;;;;;13.18;5.22;;;;;;;7.49;77.17;102677.75;6215342;28;20225;-72
2021/09/21 00:42:24;;;;;;;23.70;4.70;;;;;;;7.40;76.67;102673.22;6216266;28;20233;-71
2021/09/21 00:45:29;;;;;;;13.60;4.97;;;;;;;7.57;76.37;102672.38;6215962;28;20214;-71
2021/09/21 00:48:33;;;;;;;8.87;5.13;;;;;;;7.40;77.01;102667.78;6214840;28;20513;-71
2021/09/21 00:51:37;;;;;;;9.37;5.17;;;;;;;7.46;76.53;102667.19;6214622;28;20395;-71
2021/09/21 00:54:42;;;;;;;10.88;5.05;;;;;;;7.32;76.03;102658.69;6214528;28;20610;-71
2021/09/21 00:57:47;;;;;;;13.05;5.53;;;;;;;7.06;77.13;102653.09;6214468;28;20351;-71
2021/09/21 01:00:51;;;;;;;10.93;5.55;;;;;;;7.28;76.56;102652.72;6215933;28;20238;-72
2021/09/21 01:03:56;;;;;;;11.93;5.17;;;;;;;7.39;75.82;102649.81;6248195;22;20315;-71
2021/09/21 01:07:00;;;;;;;15.82;5.43;;;;;;;7.35;76.06;102642.94;6263769;28;20217;-71
2021/09/21 01:10:08;;;;;;;6.60;4.80;;;;;;;7.35;76.32;102642.09;6264355;28;20185;-71
2021/09/21 01:13:16;;;;;;;12.65;4.88;;;;;;;7.30;76.70;102630.81;6264579;28;20230;-71
2021/09/21 01:16:21;;;;;;;7.97;5.10;;;;;;;7.31;76.30;102630.69;6263342;28;20252;-71
2021/09/21 01:19:25;;;;;;;10.43;5.67;;;;;;;7.46;75.78;102628.31;6264154;28;20248;-71
2021/09/21 01:22:33;;;;;;;15.90;5.00;;;;;;;7.50;75.62;102630.56;6264198;28;20191;-71
2021/09/21 01:25:38;;;;;;;14.93;5.30;;;;;;;7.38;76.25;102625.50;6262972;28;20281;-71
2021/09/21 01:28:42;;;;;;;18.50;5.57;;;;;;;7.32;76.36;102629.66;6264297;28;20185;-71
2021/09/21 01:31:46;;;;;;;14.40;5.30;;;;;;;7.33;76.51;102617.81;6262833;28;20476;-71
2021/09/21 01:34:51;;;;;;;21.83;6.20;;;;;;;7.20;77.23;102611.88;6264086;28;20189;-70
2021/09/21 01:37:56;;;;;;;23.50;5.80;;;;;;;7.22;77.13;102609.88;6262781;28;20434;-71
2021/09/21 01:41:00;;;;;;;15.80;5.70;;;;;;;7.07;77.66;102605.97;6262142;28;20373;-71
2021/09/21 01:44:05;;;;;;;14.93;5.33;;;;;;;6.91;78.15;102612.03;6263530;28;20193;-71
2021/09/21 01:47:11;;;;;;;8.63;5.60;;;;;;;7.12;77.53;102614.50;6262480;28;20256;-71
2021/09/21 01:50:26;;;;;;;9.60;5.30;;;;;;;7.17;77.19;102617.63;6262871;28;20185;-71
2021/09/21 01:53:40;;;;;;;13.20;5.47;;;;;;;7.28;76.89;102619.28;6263050;28;20307;-71
2021/09/21 02:00:07;;;;;;;11.73;5.43;;;;;;;7.18;77.73;102618.47;6262366;28;20484;-71
2021/09/21 02:03:15;;;;;;;26.00;5.55;;;;;;;6.87;78.79;102618.78;6263311;28;20237;-71
2021/09/21 02:06:22;;;;;;;14.87;5.30;;;;;;;6.88;78.90;102616.94;6262111;28;20618;-71
2021/09/21 02:09:28;;;;;;;13.80;5.17;;;;;;;6.98;78.84;102623.16;6261957;28;20534;-71
2021/09/21 02:12:32;;;;;;;9.63;5.10;;;;;;;7.09;78.77;102624.84;6262153;28;20411;-71
2021/09/21 02:15:36;;;;;;;10.13;5.43;;;;;;;6.91;79.04;102616.59;6261979;28;20377;-71
2021/09/21 02:18:41;;;;;;;5.73;4.93;;;;;;;7.03;78.64;102614.56;6263153;28;20188;-71
2021/09/21 02:21:45;;;;;;;12.70;4.90;;;;;;;7.16;78.08;102626.78;6262908;28;20256;-71
2021/09/21 02:24:51;;;;;;;12.45;5.43;;;;;;;7.18;78.03;102624.78;6262197;28;20258;-71
2021/09/21 02:27:55;;;;;;;11.67;4.97;;;;;;;7.01;78.44;102624.72;6263024;28;20216;-71
2021/09/21 02:30:59;;;;;;;15.50;5.17;;;;;;;6.92;78.91;102626.47;6261787;28;20184;-71
2021/09/21 02:34:04;;;;;;;10.25;4.95;;;;;;;7.00;78.72;102621.16;6261697;28;20496;-71
2021/09/21 02:37:11;;;;;;;9.53;5.10;;;;;;;6.85;78.91;102606.38;6262677;28;20189;-71
2021/09/21 02:40:16;;;;;;;15.00;5.10;;;;;;;6.90;79.21;102609.50;6261628;28;20185;-71
2021/09/21 02:43:20;;;;;;;14.77;4.80;;;;;;;6.97;78.68;102616.03;6262548;28;20185;-71
2021/09/21 02:46:24;;;;;;;9.57;5.18;;;;;;;6.91;78.82;102606.63;6261450;28;20455;-71
2021/09/21 02:49:28;;;;;;;13.13;4.63;;;;;;;6.86;79.39;102597.22;6262961;28;20252;-71
2021/09/21 02:52:38;;;;;;;8.07;5.37;;;;;;;6.97;79.13;102594.31;6266236;28;20230;-71
2021/09/21 02:55:44;;;;;;;22.63;5.27;;;;;;;6.96;79.05;102598.00;6267919;28;20189;-71
2021/09/21 02:58:48;;;;;;;7.82;5.43;;;;;;;7.03;79.04;102588.28;6267737;28;20188;-71
2021/09/21 03:01:52;;;;;;;9.53;5.37;;;;;;;7.06;78.70;102587.13;6266221;28;20491;-71
2021/09/21 03:04:59;;;;;;;9.27;5.40;;;;;;;7.02;79.08;102575.72;6266814;28;20270;-71
2021/09/21 03:08:06;;;;;;;15.20;4.90;;;;;;;7.00;78.93;102582.28;6266305;28;20356;-71
2021/09/21 03:11:16;;;;;;;15.97;4.87;;;;;;;6.97;79.29;102578.03;6266102;28;20372;-71
2021/09/21 03:17:42;;;;;;;7.13;4.03;;;;;;;7.03;78.90;102566.56;6266009;28;20245;-71
2021/09/21 03:20:46;;;;;;;12.00;5.10;;;;;;;6.98;80.00;102568.03;6267251;28;20223;-71
2021/09/21 03:23:50;;;;;;;13.67;5.30;;;;;;;6.93;79.84;102560.34;6265911;28;20382;-71
2021/09/21 03:26:57;;;;;;;8.57;4.97;;;;;;;6.92;79.75;102555.91;6266695;28;20240;-71
2021/09/21 03:30:01;;;;;;;7.13;4.60;;;;;;;6.67;81.08;102548.50;6265738;28;20184;-71
2021/09/21 03:33:06;;;;;;;9.77;4.23;;;;;;;6.73;80.34;102550.59;6266237;28;20189;-71
2021/09/21 03:36:10;;;;;;;5.82;4.50;;;;;;;6.83;79.76;102554.97;6266545;28;20255;-71
2021/09/21 03:39:14;;;;;;;12.87;4.83;;;;;;;6.72;80.27;102546.19;6266832;28;20184;-71
2021/09/21 03:42:20;;;;;;;10.57;4.93;;;;;;;6.94;79.66;102540.34;6266738;28;20224;-71
2021/09/21 03:45:26;;;;;;;10.37;4.30;;;;;;;7.04;79.05;102540.25;6265240;28;20410;-71
2021/09/21 03:48:30;;;;;;;16.40;5.20;;;;;;;6.97;79.60;102540.03;6265627;28;20260;-71
2021/09/21 03:51:34;;;;;;;10.17;5.30;;;;;;;6.81;80.36;102539.84;6266090;28;20185;-74
2021/09/21 03:54:39;;;;;;;12.13;4.47;;;;;;;6.98;79.76;102547.19;6265516;28;20192;-71
2021/09/21 03:57:44;;;;;;;7.13;4.67;;;;;;;6.80;80.23;102557.13;6265817;28;20243;-71
2021/09/21 04:00:48;;;;;;;6.67;4.70;;;;;;;6.76;81.12;102558.44;6265954;28;20231;-71
2021/09/21 04:03:52;;;;;;;10.47;4.93;;;;;;;6.47;84.60;102557.72;6265833;28;20266;-71
2021/09/21 04:06:56;;;;;;;9.10;5.20;;;;;;;6.47;85.21;102568.56;6265052;28;20212;-71
2021/09/21 04:10:00;;;;;;;12.93;5.10;;;;;;;6.57;85.35;102569.38;6264809;28;20539;-71
2021/09/21 04:13:08;;;;;;;6.50;5.07;;;;;;;6.55;85.44;102572.22;6264756;28;20185;-71
2021/09/21 04:16:13;;;;;;;7.03;5.00;;;;;;;6.62;85.10;102567.06;6264627;28;20188;-71
2021/09/21 04:19:17;;;;;;;8.40;5.30;;;;;;;6.75;84.62;102570.31;6265578;28;20185;-71
2021/09/21 04:22:21;;;;;;;5.67;5.07;;;;;;;6.82;84.69;102564.13;6264507;28;20548;-71
2021/09/21 04:25:25;;;;;;;10.17;4.93;;;;;;;6.88;83.65;102562.66;6265715;28;20233;-71
2021/09/21 04:28:40;;;;;;;10.03;5.20;;;;;;;6.84;84.00;102566.66;6265640;28;20208;-71
2021/09/21 04:31:45;;;;;;;5.80;5.20;;;;;;;7.00;83.08;102556.00;6264183;28;20480;-71
2021/09/21 04:34:51;;;;;;;8.20;5.27;;;;;;;7.13;82.07;102561.94;6264662;28;20232;-71
2021/09/21 04:37:55;;;;;;;13.85;5.75;;;;;;;7.20;81.84;102559.44;6265378;28;20195;-71
2021/09/21 04:40:59;;;;;;;17.55;5.22;;;;;;;7.05;82.80;102559.13;6265004;28;20185;-71
2021/09/21 04:44:05;;;;;;;14.97;5.53;;;;;;;7.10;82.80;102551.38;6264666;28;20185;-71
2021/09/21 04:47:09;;;;;;;10.03;5.00;;;;;;;7.28;81.69;102546.81;6264869;28;20228;-71
2021/09/21 04:50:14;;;;;;;13.60;5.80;;;;;;;7.41;79.68;102555.44;6265442;28;20185;-71
2021/09/21 04:53:18;;;;;;;12.55;5.53;;;;;;;7.20;81.63;102544.03;6263849;28;20430;-71
2021/09/21 04:56:22;;;;;;;12.13;5.55;;;;;;;7.23;82.29;102541.00;6264736;28;20197;-71
2021/09/21 04:59:28;;;;;;;9.57;5.13;;;;;;;7.42;81.75;102540.84;6263659;28;20404;-71
2021/09/21 05:02:32;;;;;;;18.27;5.25;;;;;;;7.26;81.18;102543.41;6264758;28;20184;-71
2021/09/21 05:05:37;;;;;;;12.40;5.18;;;;;;;7.30;81.93;102530.38;6264372;28;20347;-71
2021/09/21 05:08:43;;;;;;;16.48;5.15;;;;;;;7.36;81.33;102527.03;6263338;28;20279;-71
2021/09/21 05:11:47;;;;;;;9.02;5.00;;;;;;;7.44;82.30;102522.56;6264300;28;20181;-71
2021/09/21 05:14:53;;;;;;;7.93;4.93;;;;;;;7.58;81.54;102519.25;6263509;28;20191;-72
2021/09/21 05:17:57;;;;;;;9.98;4.57;;;;;;;7.57;81.56;102512.13;6264669;28;20200;-72
2021/09/21 05:21:01;;;;;;;6.40;4.43;;;;;;;7.72;81.41;102514.28;6263010;28;20411;-72
2021/09/21 05:24:07;;;;;;;5.57;4.27;;;;;;;7.69;81.25;102503.72;6263160;28;20472;-73
2021/09/21 05:27:12;;;;;;;7.85;4.53;;;;;;;7.75;81.90;102498.53;6263299;28;20240;-72
2021/09/21 05:30:17;;;;;;;4.53;4.20;;;;;;;7.90;81.33;102498.78;6263997;28;20185;-72
2021/09/21 05:33:27;;;;;;;6.55;4.28;;;;;;;7.90;82.12;102501.50;6262953;28;20468;-72
2021/09/21 05:36:31;;;;;;;6.00;5.28;;;;;;;7.67;82.90;102511.19;6263718;28;20192;-72
2021/09/21 05:39:35;;;;;;;5.75;4.88;;;;;;;7.71;82.43;102508.00;6262839;28;20185;-72
2021/09/21 05:42:42;;;;;;;5.75;5.10;;;;;;;7.91;82.47;102508.66;6263583;28;20229;-72
2021/09/21 05:45:47;;;;;;;5.70;4.20;;;;;;;8.02;81.97;102498.34;6263443;28;20189;-71
2021/09/21 05:48:53;;;;;;;7.35;4.80;;;;;;;8.21;81.75;102497.28;6262252;28;20373;-71
2021/09/21 05:51:57;;;;;;;12.73;5.00;;;;;;;8.30;81.00;102493.63;6263460;28;20279;-72
2021/09/21 05:55:02;;;;;;;6.10;4.30;;;;;;;8.36;80.80;102492.97;6263371;28;20184;-72
2021/09/21 05:58:06;;;;;;;5.05;4.65;;;;;;;8.56;79.32;102499.88;6263090;28;20188;-73
2021/09/21 06:01:11;;;;;;;4.72;4.43;;;;;;;8.67;77.02;102496.88;6262006;28;20477;-72
2021/09/21 06:04:19;;;;;;;4.43;4.15;;;;;;;8.87;72.45;102502.00;6263315;28;20224;-72
2021/09/21 06:07:24;;;;;;;3.58;3.40;;;;;;;9.03;70.67;102502.06;6262984;28;20208;-73
2021/09/21 06:10:28;;;;;;;3.70;3.60;;;;;;;8.96;70.06;102501.84;6263356;28;20218;-72
2021/09/21 06:13:32;;;;;;;8.00;3.15;;;;;;;8.88;70.88;102495.56;6261889;28;20350;-73
2021/09/21 06:16:38;;;;;;;4.40;3.35;;;;;;;8.85;71.93;102493.16;6262936;28;20185;-72
2021/09/21 06:19:42;;;;;;;3.72;3.50;;;;;;;8.87;72.70;102496.56;6262873;28;20189;-72
2021/09/21 06:22:47;;;;;;;3.92;3.63;;;;;;;8.82;71.95;102494.34;6261956;28;20184;-72
2021/09/21 06:25:51;;;;;;;6.55;4.28;;;;;;;8.83;71.43;102496.06;6261735;28;20185;-72
2021/09/21 06:28:55;;;;;;;10.63;4.13;;;;;;;8.86;72.23;102494.88;6262536;28;20455;-72
2021/09/21 06:32:01;;;;;;;8.32;4.18;;;;;;;9.08;72.13;102499.69;6261738;28;20475;-72
2021/09/21 06:35:07;;;;;;;7.50;4.30;;;;;;;9.21;71.68;102494.63;6263054;28;20231;-72
2021/09/21 06:38:13;;;;;;;4.13;3.83;;;;;;;9.28;70.31;102490.19;6262284;28;20189;-72
2021/09/21 06:41:18;;;;;;;4.30;4.10;;;;;;;9.30;70.13;102471.78;6262516;28;20185;-72
2021/09/21 06:44:22;;;;;;;13.93;3.90;;;;;;;9.30;70.92;102471.78;6262935;28;20207;-72
2021/09/21 06:47:27;;;;;;;4.68;4.07;;;;;;;9.37;71.03;102481.03;6261272;28;20262;-72
2021/09/21 06:50:31;;;;;;;9.68;3.95;;;;;;;9.49;69.82;102476.94;6262385;28;20184;-71
2021/09/21 06:53:36;;;;;;;3.72;3.25;;;;;;;9.48;69.92;102475.22;6262556;28;20207;-71
2021/09/21 06:56:40;;;;;;;3.70;3.47;;;;;;;9.22;71.68;102474.50;6261096;28;20192;-72
2021/09/21 06:59:44;;;;;;;5.03;3.65;;;;;;;9.14;73.61;102477.25;6262093;28;20528;-72
2021/09/21 07:02:52;;;;;;;8.05;3.63;;;;;;;9.04;73.24;102471.09;6261329;28;20184;-72
2021/09/21 07:05:58;;;;;;;3.35;3.22;;;;;;;9.06;73.37;102469.91;6262367;28;20266;-72
2021/09/21 07:09:02;;;;;;;4.53;3.70;;;;;;;9.20;73.37;102465.66;6260966;28;20212;-72
2021/09/21 07:12:07;;;;;;;4.15;3.47;;;;;;;9.27;72.27;102461.25;6261070;28;20468;-72
2021/09/21 07:15:12;;;;;;;3.70;3.50;;;;;;;9.36;71.84;102460.22;6261509;28;20192;-71
2021/09/21 07:18:18;;;;;;;4.22;3.92;;;;;;;9.47;72.39;102472.66;6262420;28;20243;-73
2021/09/21 07:21:22;;;;;;;3.85;3.50;;;;;;;9.51;71.42;102469.41;6262427;28;20189;-72
2021/09/21 07:24:26;;;;;;;3.75;3.38;;;;;;;9.58;72.98;102459.53;6262335;28;20220;-72
2021/09/21 07:27:30;;;;;;;3.58;3.47;;;;;;;9.47;72.29;102456.31;6262152;28;20216;-72
2021/09/21 07:30:35;;;;;;;5.15;3.40;;;;;;;9.69;70.68;102451.00;6260950;28;20243;-72
2021/09/21 07:33:41;;;;;;;6.45;3.30;;;;;;;9.77;69.51;102464.63;6261874;28;20191;-72
2021/09/21 07:36:45;;;;;;;4.75;3.40;;;;;;;9.83;70.02;102463.09;6262184;28;20251;-72
2021/09/21 07:39:50;;;;;;;4.28;3.97;;;;;;;9.70;71.32;102452.72;6265804;28;20189;-71
2021/09/21 07:42:54;;;;;;;7.47;3.35;;;;;;;9.59;72.41;102444.91;6266442;28;20185;-73
2021/09/21 07:45:58;;;;;;;3.58;3.38;;;;;;;9.72;72.71;102456.13;6266314;28;20184;-71
2021/09/21 07:49:04;;;;;;;3.58;3.47;;;;;;;9.56;71.84;102455.28;6266064;28;20213;-72
2021/09/21 07:52:09;;;;;;;3.17;3.03;;;;;;;9.61;72.09;102453.75;6266255;28;20185;-72
2021/09/21 07:55:15;;;;;;;5.38;3.30;;;;;;;9.80;70.95;102452.53;6265089;28;20217;-72
2021/09/21 07:58:20;;;;;;;6.25;3.08;;;;;;;10.00;69.59;102446.53;6264945;28;20193;-72
2021/09/21 08:01:24;;;;;;;8.73;3.45;;;;;;;10.01;69.11;102461.84;6266057;28;20223;-72
2021/09/21 08:04:33;;;;;;;3.60;3.40;;;;;;;10.04;69.31;102456.06;6265778;28;20296;-72
2021/09/21 08:07:37;;;;;;;3.83;3.50;;;;;;;10.08;68.93;102468.34;6265799;28;20248;-72
2021/09/21 08:10:41;;;;;;;4.32;3.55;;;;;;;10.18;67.95;102461.84;6265837;28;20240;-72
2021/09/21 08:13:46;;;;;;;9.35;3.15;;;;;;;10.26;67.08;102459.94;6265515;28;20184;-72
2021/09/21 08:16:50;;;;;;;3.20;3.00;;;;;;;10.33;66.03;102460.09;6265868;28;20256;-72
2021/09/21 08:19:57;;;;;;;3.72;3.53;;;;;;;10.33;66.60;102460.09;6265587;28;20258;-72
2021/09/21 08:23:01;;;;;;;3.83;3.53;;;;;;;10.37;66.41;102462.31;6265386;28;20276;-72
2021/09/21 08:26:06;;;;;;;3.58;3.40;;;;;;;10.48;66.06;102470.09;6265370;28;20303;-73
2021/09/21 08:29:13;;;;;;;3.95;3.72;;;;;;;10.38;67.13;102474.03;6265581;28;20212;-72
2021/09/21 08:32:17;;;;;;;3.53;3.38;;;;;;;10.39;65.73;102470.31;6264230;28;20411;-73
2021/09/21 08:35:24;;;;;;;3.45;3.25;;;;;;;10.39;64.53;102459.41;6265471;28;20188;-73
2021/09/21 08:38:28;;;;;;;5.07;3.10;;;;;;;10.26;65.61;102464.56;6264793;28;20189;-72
2021/09/21 08:41:33;;;;;;;8.27;3.08;;;;;;;10.42;65.31;102459.03;6265441;28;20184;-73
2021/09/21 08:44:38;;;;;;;5.10;2.70;;;;;;;10.37;64.97;102461.44;6265541;28;20208;-72
2021/09/21 08:47:45;;;;;;;2.90;2.80;;;;;;;10.54;64.02;102460.34;6264023;28;20492;-72
2021/09/21 08:50:51;;;;;;;2.97;2.88;;;;;;;10.53;63.78;102456.75;6262830;28;20213;-73
2021/09/21 08:53:55;;;;;;;6.25;3.15;;;;;;;10.50;63.93;102450.81;6263883;28;20523;-72
2021/09/21 08:57:00;;;;;;;5.65;2.78;;;;;;;10.61;64.27;102445.81;6263901;28;20243;-73
2021/09/21 09:00:08;;;;;;;4.30;3.00;;;;;;;10.74;62.31;102453.41;6264581;28;20189;-72
2021/09/21 09:03:19;;;;;;;3.38;3.08;;;;;;;10.74;62.61;102447.94;6263772;28;20541;-73
2021/09/21 09:06:25;;;;;;;2.90;2.78;;;;;;;10.95;61.72;102439.97;6264587;28;20189;-72
2021/09/21 09:09:33;;;;;;;5.00;3.25;;;;;;;10.93;62.09;102447.50;6264367;28;20255;-72
2021/09/21 09:12:42;;;;;;;3.70;3.40;;;;;;;10.96;62.62;102441.69;6264684;28;20185;-73
2021/09/21 09:15:54;;;;;;;4.47;3.42;;;;;;;11.18;61.39;102435.38;6263770;28;20280;-73
2021/09/21 09:19:04;;;;;;;3.17;2.95;;;;;;;11.21;60.71;102440.47;6263368;28;20189;-72
2021/09/21 09:22:13;;;;;;;3.25;3.03;;;;;;;11.23;62.04;102432.94;6263208;28;20477;-73
2021/09/21 09:25:18;;;;;;;2.88;2.60;;;;;;;11.21;61.34;102426.81;6264109;28;20221;-73
2021/09/21 09:28:24;;;;;;;2.80;2.58;;;;;;;11.35;61.38;102440.72;6264179;28;20189;-73
2021/09/21 09:31:30;;;;;;;2.72;2.50;;;;;;;11.49;61.45;102431.69;6263037;28;20535;-73
2021/09/21 09:34:34;;;;;;;4.10;2.63;;;;;;;11.60;61.99;102431.25;6263270;28;20231;-73
2021/09/21 09:37:41;;;;;;;4.05;3.05;;;;;;;11.53;63.12;102430.31;6263594;28;20264;-73
2021/09/21 09:40:49;;;;;;;2.97;2.47;;;;;;;11.68;62.42;102425.72;6262666;28;20189;-73
2021/09/21 09:43:53;;;;;;;3.03;2.42;;;;;;;11.79;62.56;102430.75;6262693;28;20473;-72
2021/09/21 09:47:01;;;;;;;3.10;2.40;;;;;;;11.78;63.02;102427.19;6263589;28;20192;-72
2021/09/21 09:50:10;;;;;;;6.07;2.30;;;;;;;11.89;63.45;102434.06;6263758;28;20276;-73
2021/09/21 09:53:18;;;;;;;2.88;2.50;;;;;;;11.83;63.28;102424.75;6262867;28;20231;-72
2021/09/21 09:56:22;;;;;;;2.75;2.65;;;;;;;11.93;62.69;102424.47;6263295;28;20275;-74
2021/09/21 09:59:28;;;;;;;4.20;2.78;;;;;;;11.96;62.96;102428.72;6261936;28;20256;-73
2021/09/21 10:02:33;;;;;;;4.57;2.00;;;;;;;12.00;62.53;102419.06;6262101;28;20193;-72
2021/09/21 10:05:41;;;;;;;2.00;2.00;;;;;;;11.89;63.00;102423.13;6261964;28;20343;-73
2021/09/21 10:08:48;;;;;;;1.92;1.92;;;;;;;11.90;62.92;102419.38;6263441;28;20223;-72
2021/09/21 10:11:56;;;;;;;2.33;2.13;;;;;;;11.97;63.28;102409.34;6263205;28;20212;-73
2021/09/21 10:15:00;;;;;;;2.22;2.22;;;;;;;11.99;64.23;102406.44;6263100;28;20192;-73
2021/09/21 10:18:04;;;;;;;2.55;2.45;;;;;;;12.00;62.65;102409.00;6261723;28;20220;-73
2021/09/21 10:21:09;;;;;;;5.95;2.40;;;;;;;12.01;63.06;102405.22;6262031;28;20386;-73
2021/09/21 10:24:15;;;;;;;4.68;2.80;;;;;;;12.11;62.68;102397.59;6263192;28;20239;-73
2021/09/21 10:27:21;;;;;;;2.60;2.28;;;;;;;12.14;61.45;102394.47;6262039;28;20231;-73
2021/09/21 10:30:29;;;;;;;2.60;2.47;;;;;;;12.18;62.25;102400.41;6262997;28;20291;-73
2021/09/21 10:33:33;;;;;;;3.10;2.42;;;;;;;12.19;63.45;102408.44;6262029;28;20196;-73
2021/09/21 10:36:46;;;;;;;2.20;2.20;;;;;;;12.24;63.26;102399.66;6262576;28;20185;-74
2021/09/21 10:40:01;;;;;;;8.02;2.95;;;;;;;12.23;63.60;102400.66;6262778;28;20188;-73
2021/09/21 10:43:21;;;;;;;2.30;2.30;;;;;;;12.31;63.69;102406.91;6262694;28;20192;-74
2021/09/21 10:46:25;;;;;;;2.70;2.50;;;;;;;12.33;64.03;102399.34;6262313;28;20185;-74
2021/09/21 10:49:32;;;;;;;2.83;2.67;;;;;;;12.32;64.43;102396.81;6261469;28;20216;-73
2021/09/21 10:52:36;;;;;;;2.50;2.33;;;;;;;12.40;63.39;102391.22;6262631;28;20232;-74
2021/09/21 10:55:42;;;;;;;2.30;2.10;;;;;;;12.44;63.65;102396.13;6262296;28;20185;-74
2021/09/21 10:58:53;;;;;;;2.83;2.17;;;;;;;12.57;65.48;102395.44;6261592;28;20185;-73
2021/09/21 11:01:57;;;;;;;4.32;2.17;;;;;;;12.54;62.67;102396.66;6262479;28;20193;-75
2021/09/21 11:05:02;;;;;;;2.30;2.22;;;;;;;12.57;63.39;102387.22;6261623;28;20267;-75
2021/09/21 11:08:11;;;;;;;2.60;2.50;;;;;;;12.67;66.38;102397.84;6261143;28;20252;-75
2021/09/21 11:11:17;;;;;;;3.00;2.47;;;;;;;12.53;63.58;102389.47;6262157;28;20213;-75
2021/09/21 11:14:21;;;;;;;2.40;2.30;;;;;;;12.51;63.67;102391.56;6266822;28;20220;-73
2021/09/21 11:17:27;;;;;;;6.15;2.40;;;;;;;12.58;65.02;102397.16;6267207;28;20254;-73
2021/09/21 11:20:31;;;;;;;2.33;2.22;;;;;;;12.66;62.33;102393.44;6266890;28;20256;-74
2021/09/21 11:23:38;;;;;;;2.60;2.40;;;;;;;12.72;63.37;102392.66;6265843;28;20407;-74
2021/09/21 11:26:43;;;;;;;4.50;2.05;;;;;;;12.85;61.97;102381.84;6266118;28;20257;-73
2021/09/21 11:29:49;;;;;;;2.20;2.20;;;;;;;12.68;63.43;102385.88;6265837;28;20371;-76
2021/09/21 11:32:53;;;;;;;2.30;2.20;;;;;;;12.80;62.76;102384.31;6266974;28;20252;-74
2021/09/21 11:36:00;;;;;;;2.30;2.20;;;;;;;12.68;64.63;102385.88;6266486;28;20192;-74
2021/09/21 11:39:04;;;;;;;2.38;2.38;;;;;;;12.90;64.83;102379.34;6265591;28;20446;-73
2021/09/21 11:42:21;;;;;;;2.55;2.45;;;;;;;12.71;65.07;102380.84;6266722;28;20195;-73
2021/09/21 11:45:27;;;;;;;2.40;2.35;;;;;;;12.68;65.08;102369.44;6266355;28;20185;-73
2021/09/21 11:48:32;;;;;;;2.30;2.30;;;;;;;12.87;65.20;102379.75;6265477;28;20247;-73
2021/09/21 11:51:38;;;;;;;9.82;2.20;;;;;;;12.80;62.86;102374.22;6265166;28;20292;-73
2021/09/21 11:54:42;;;;;;;1.98;1.98;;;;;;;12.70;64.00;102367.34;6266571;28;20192;-73
2021/09/21 11:57:49;;;;;;;2.85;2.40;;;;;;;12.83;63.19;102364.75;6265964;28;20191;-73
2021/09/21 12:00:54;;;;;;;2.38;2.28;;;;;;;12.99;62.76;102368.06;6266095;28;20189;-73
2021/09/21 12:03:58;;;;;;;2.53;2.33;;;;;;;13.04;64.87;102359.28;6265721;28;20241;-73
2021/09/21 12:07:03;;;;;;;2.40;2.30;;;;;;;12.92;62.19;102355.34;6264768;28;20412;-74
2021/09/21 12:10:10;;;;;;;1.92;1.83;;;;;;;12.79;61.25;102360.72;6264785;28;20210;-74
2021/09/21 12:13:18;;;;;;;6.07;2.10;;;;;;;12.99;62.02;102339.84;6265936;28;20213;-73
2021/09/21 12:16:23;;;;;;;2.13;2.03;;;;;;;13.12;58.05;102350.97;6265554;28;20257;-74
2021/09/21 12:19:27;;;;;;;2.00;2.00;;;;;;;13.21;58.49;102344.28;6264408;28;20358;-74
2021/09/21 12:22:31;;;;;;;2.00;1.90;;;;;;;12.95;59.41;102346.75;6264249;28;20357;-74
2021/09/21 12:25:37;;;;;;;2.28;2.17;;;;;;;13.19;60.75;102340.91;6265158;28;20397;-73
2021/09/21 12:28:44;;;;;;;2.80;2.60;;;;;;;13.20;59.89;102337.09;6265197;28;20185;-73
2021/09/21 12:31:48;;;;;;;3.60;2.47;;;;;;;13.29;56.99;102329.59;6265517;28;20259;-73
2021/09/21 12:35:02;;;;;;;2.10;2.00;;;;;;;13.28;56.56;102342.44;6264669;28;20185;-72
2021/09/21 12:38:08;;;;;;;2.15;2.00;;;;;;;13.27;59.28;102343.50;6264174;28;20185;-72
2021/09/21 12:41:12;;;;;;;6.85;2.20;;;;;;;13.28;58.34;102334.22;6263912;28;20504;-72
2021/09/21 12:44:21;;;;;;;5.18;2.10;;;;;;;13.26;60.43;102330.81;6264887;28;20185;-73
2021/09/21 12:47:27;;;;;;;2.50;2.40;;;;;;;13.40;57.76;102331.78;6264734;28;20185;-73
2021/09/21 12:50:31;;;;;;;3.80;2.20;;;;;;;13.32;58.38;102335.53;6263779;28;20515;-72
2021/09/21 12:53:36;;;;;;;3.60;2.30;;;;;;;13.36;57.97;102330.47;6264139;28;20208;-73
2021/09/21 12:56:42;;;;;;;2.33;2.00;;;;;;;13.26;58.82;102324.50;6264645;28;20259;-72
2021/09/21 12:59:53;;;;;;;3.85;2.33;;;;;;;13.28;58.88;102323.25;6264443;28;20253;-73
2021/09/21 13:02:57;;;;;;;2.30;2.15;;;;;;;13.09;59.48;102323.94;6263337;28;20484;-72
2021/09/21 13:06:02;;;;;;;2.78;2.17;;;;;;;13.23;58.16;102314.78;6263028;28;20240;-72
2021/09/21 13:09:07;;;;;;;2.83;2.05;;;;;;;13.38;56.76;102315.53;6263276;28;20499;-72
2021/09/21 13:12:11;;;;;;;3.63;2.50;;;;;;;13.30;57.42;102326.63;6264459;28;20209;-72
2021/09/21 13:15:17;;;;;;;2.35;2.30;;;;;;;13.43;57.39;102315.78;6264255;28;20193;-72
2021/09/21 13:18:21;;;;;;;2.60;2.42;;;;;;;13.49;56.37;102304.00;6264023;28;20284;-71
2021/09/21 13:21:25;;;;;;;2.60;2.03;;;;;;;13.56;56.83;102310.38;6264035;28;20189;-72
2021/09/21 13:24:29;;;;;;;2.47;2.42;;;;;;;13.55;56.85;102308.69;6264261;28;20185;-72
2021/09/21 13:27:34;;;;;;;2.38;2.28;;;;;;;13.58;55.90;102302.81;6264277;28;20185;-72
2021/09/21 13:30:39;;;;;;;2.13;2.13;;;;;;;13.56;57.06;102304.88;6263116;28;20216;-71
2021/09/21 13:33:45;;;;;;;2.25;2.15;;;;;;;13.53;59.14;102305.28;6264076;28;20209;-72
2021/09/21 13:36:49;;;;;;;2.25;2.00;;;;;;;13.36;57.41;102301.16;6263287;28;20189;-72
2021/09/21 13:39:53;;;;;;;2.30;2.13;;;;;;;13.53;56.80;102309.94;6262607;28;20473;-72
2021/09/21 13:42:58;;;;;;;2.00;2.00;;;;;;;13.53;57.50;102310.78;6263623;28;20224;-72
2021/09/21 13:46:03;;;;;;;2.40;2.30;;;;;;;13.48;55.93;102305.03;6262551;28;20538;-72
2021/09/21 13:49:10;;;;;;;2.08;1.95;;;;;;;13.59;55.86;102304.50;6262561;28;20448;-72
2021/09/21 13:52:14;;;;;;;2.20;2.10;;;;;;;13.45;56.76;102302.72;6263379;28;20212;-72
2021/09/21 13:55:21;;;;;;;2.10;2.00;;;;;;;13.55;55.97;102308.69;6263406;28;20188;-72
2021/09/21 13:58:25;;;;;;;2.38;2.28;;;;;;;13.56;57.85;102307.63;6263065;28;20189;-72
2021/09/21 14:01:31;;;;;;;2.90;2.50;;;;;;;13.43;60.66;102304.81;6261835;28;20438;-72
2021/09/21 14:04:38;;;;;;;2.58;2.38;;;;;;;13.30;61.26;102315.66;6262946;28;20236;-72
2021/09/21 14:07:42;;;;;;;2.85;2.33;;;;;;;13.27;60.19;102315.22;6262519;28;20185;-73
2021/09/21 14:10:48;;;;;;;2.33;2.10;;;;;;;13.40;59.07;102305.22;6261786;28;20523;-72
2021/09/21 14:13:52;;;;;;;2.25;2.15;;;;;;;13.44;57.34;102317.47;6263074;28;20276;-73
2021/09/21 14:16:58;;;;;;;5.80;2.40;;;;;;;13.36;60.37;102314.88;6262864;28;20204;-73
2021/09/21 14:20:06;;;;;;;2.08;2.08;;;;;;;13.31;60.09;102311.88;6261616;28;20461;-73
2021/09/21 14:23:11;;;;;;;2.42;2.35;;;;;;;13.39;60.08;102311.75;6262871;28;20235;-73
2021/09/21 14:26:16;;;;;;;2.55;2.42;;;;;;;13.34;59.75;102306.00;6261445;28;20189;-73
2021/09/21 14:29:20;;;;;;;2.90;2.80;;;;;;;13.37;57.68;102308.38;6262985;28;20191;-73
2021/09/21 14:32:26;;;;;;;3.47;2.25;;;;;;;13.37;57.89;102322.06;6261430;28;20534;-72